createdAt,value
2017-10-24T00:00:23.109Z,89.46
2017-10-24T00:02:50.566Z,89.48
2017-10-24T00:05:18.077Z,89.24
2017-10-24T00:07:45.842Z,89.31
2017-10-24T00:10:13.439Z,90.42
2017-10-24T00:12:40.885Z,90.94
2017-10-24T00:15:08.676Z,91.68
2017-10-24T00:17:36.148Z,91.67
2017-10-24T00:20:03.634Z,91.29
2017-10-24T00:22:31.308Z,90.65
2017-10-24T00:24:58.779Z,90.65
2017-10-24T00:27:26.290Z,90.98
2017-10-24T00:29:53.764Z,91.11
2017-10-24T00:32:21.231Z,89.53
2017-10-24T00:34:48.669Z,90.26
2017-10-24T00:37:16.147Z,90.83
2017-10-24T00:39:43.625Z,90.51
2017-10-24T00:42:11.117Z,90.31
2017-10-24T00:44:38.571Z,90.35
2017-10-24T00:47:06.049Z,90.24
2017-10-24T00:49:33.517Z,90.13
2017-10-24T00:52:00.995Z,90.76
2017-10-24T00:54:28.456Z,90.63
2017-10-24T00:56:56.022Z,90.25
2017-10-24T00:59:23.480Z,90.08
2017-10-24T01:01:51.028Z,90.19
2017-10-24T01:04:18.583Z,90.05
2017-10-24T01:06:46.068Z,89.93
2017-10-24T01:09:13.608Z,90.35
2017-10-24T01:11:41.091Z,90.09
2017-10-24T01:14:08.561Z,90.31
2017-10-24T01:16:36.048Z,90.11
2017-10-24T01:19:03.533Z,90.64
2017-10-24T01:21:31.020Z,90.91
2017-10-24T01:23:58.490Z,90.75
2017-10-24T01:26:25.977Z,90.76
2017-10-24T01:28:53.435Z,91.04
2017-10-24T01:31:20.918Z,91.48
2017-10-24T01:33:48.391Z,91.78
2017-10-24T01:36:15.863Z,91.87
2017-10-24T01:38:43.327Z,91.08
2017-10-24T01:41:10.861Z,91.07
2017-10-24T01:43:38.417Z,91.50
2017-10-24T01:46:05.956Z,91.00
2017-10-24T01:48:33.463Z,91.89
2017-10-24T01:51:00.924Z,92.41
2017-10-24T01:53:28.419Z,91.57
2017-10-24T01:55:55.883Z,91.90
2017-10-24T01:58:23.360Z,91.87
2017-10-24T02:00:50.820Z,92.16
2017-10-24T02:03:18.313Z,92.15
2017-10-24T02:05:45.799Z,92.91
2017-10-24T02:08:13.381Z,92.99
2017-10-24T02:10:40.845Z,93.12
2017-10-24T02:13:08.335Z,92.72
2017-10-24T02:15:35.795Z,92.83
2017-10-24T02:18:03.276Z,92.48
2017-10-24T02:20:30.739Z,92.30
2017-10-24T02:22:58.232Z,92.24
2017-10-24T02:25:25.708Z,92.45
2017-10-24T02:27:53.231Z,92.13
2017-10-24T02:30:20.787Z,92.58
2017-10-24T02:32:48.263Z,92.76
2017-10-24T02:35:15.802Z,92.14
2017-10-24T02:37:43.295Z,91.74
2017-10-24T02:40:10.773Z,91.74
2017-10-24T02:42:38.280Z,91.69
2017-10-24T02:45:05.740Z,91.61
2017-10-24T02:47:33.228Z,91.52
2017-10-24T02:50:00.756Z,91.53
2017-10-24T02:52:28.217Z,91.30
2017-10-24T02:54:55.724Z,91.61
2017-10-24T02:57:23.233Z,92.01
2017-10-24T02:59:50.707Z,91.14
2017-10-24T03:02:18.169Z,91.06
2017-10-24T03:04:45.676Z,91.79
2017-10-24T03:07:13.126Z,91.42
2017-10-24T03:09:40.608Z,91.33
2017-10-24T03:12:08.188Z,90.76
2017-10-24T03:14:35.720Z,90.18
2017-10-24T03:17:03.168Z,90.20
2017-10-24T03:19:30.643Z,90.38
2017-10-24T03:21:58.100Z,90.26
2017-10-24T03:24:25.580Z,89.80
2017-10-24T03:26:53.034Z,90.27
2017-10-24T03:29:20.523Z,89.67
2017-10-24T03:31:47.972Z,89.59
2017-10-24T03:34:15.473Z,89.34
2017-10-24T03:36:42.943Z,88.69
2017-10-24T03:39:10.420Z,89.35
2017-10-24T03:41:38.882Z,89.36
2017-10-24T03:44:06.372Z,89.57
2017-10-24T03:46:33.890Z,89.64
2017-10-24T03:49:01.386Z,89.12
2017-10-24T03:51:28.846Z,89.17
2017-10-24T03:53:56.311Z,89.50
2017-10-24T03:56:23.763Z,88.91
2017-10-24T03:58:51.231Z,88.73
2017-10-24T04:01:18.723Z,88.91
2017-10-24T04:03:46.215Z,89.18
2017-10-24T04:06:13.689Z,89.22
2017-10-24T04:08:41.172Z,89.35
2017-10-24T04:11:08.643Z,89.27
2017-10-24T04:13:36.101Z,89.05
2017-10-24T04:16:03.597Z,88.63
2017-10-24T04:18:31.135Z,88.56
2017-10-24T04:20:58.604Z,88.78
2017-10-24T04:23:26.057Z,89.06
2017-10-24T04:25:53.535Z,89.49
2017-10-24T04:28:20.988Z,89.19
2017-10-24T04:30:48.467Z,89.10
2017-10-24T04:33:15.920Z,88.82
2017-10-24T04:35:43.409Z,89.05
2017-10-24T04:38:10.860Z,89.02
2017-10-24T04:40:38.337Z,88.65
2017-10-24T04:43:05.792Z,88.84
2017-10-24T04:45:33.284Z,88.89
2017-10-24T04:48:00.808Z,88.35
2017-10-24T04:50:28.275Z,88.28
2017-10-24T04:52:55.732Z,88.89
2017-10-24T04:55:23.228Z,88.80
2017-10-24T04:57:50.681Z,88.81
2017-10-24T05:00:18.244Z,88.37
2017-10-24T05:02:45.704Z,88.79
2017-10-24T05:05:13.207Z,89.04
2017-10-24T05:07:40.666Z,88.79
2017-10-24T05:10:08.144Z,89.55
2017-10-24T05:12:35.592Z,89.26
2017-10-24T05:15:03.077Z,89.01
2017-10-24T05:17:30.549Z,88.78
2017-10-24T05:19:58.031Z,88.66
2017-10-24T05:22:25.479Z,88.75
2017-10-24T05:24:52.986Z,89.17
2017-10-24T05:27:20.456Z,89.29
2017-10-24T05:29:48.813Z,88.84
2017-10-24T05:32:16.292Z,89.04
2017-10-24T05:34:43.914Z,88.95
2017-10-24T05:37:11.366Z,88.92
2017-10-24T05:39:38.842Z,88.84
2017-10-24T05:42:06.321Z,88.89
2017-10-24T05:44:33.780Z,89.08
2017-10-24T05:47:01.268Z,89.23
2017-10-24T05:49:28.712Z,89.05
2017-10-24T05:51:56.265Z,89.53
2017-10-24T05:54:23.720Z,89.34
2017-10-24T05:56:51.188Z,89.66
2017-10-24T05:59:18.643Z,89.52
2017-10-24T06:01:46.111Z,89.43
2017-10-24T06:04:13.616Z,89.33
2017-10-24T06:06:41.085Z,89.06
2017-10-24T06:09:08.528Z,89.09
2017-10-24T06:11:36.000Z,89.10
2017-10-24T06:14:03.536Z,88.64
2017-10-24T06:16:31.009Z,88.86
2017-10-24T06:18:58.468Z,88.96
2017-10-24T06:21:25.944Z,88.85
2017-10-24T06:23:53.415Z,88.86
2017-10-24T06:26:20.911Z,88.68
2017-10-24T06:28:48.368Z,88.73
2017-10-24T06:31:15.835Z,88.59
2017-10-24T06:33:43.288Z,88.41
2017-10-24T06:36:10.852Z,88.39
2017-10-24T06:38:38.310Z,87.81
2017-10-24T06:41:05.779Z,88.36
2017-10-24T06:43:33.243Z,88.09
2017-10-24T06:46:00.716Z,88.05
2017-10-24T06:48:28.221Z,87.92
2017-10-24T06:50:55.731Z,88.41
2017-10-24T06:53:23.200Z,87.27
2017-10-24T06:55:50.675Z,87.49
2017-10-24T06:58:18.128Z,87.67
2017-10-24T07:00:45.718Z,87.90
2017-10-24T07:03:13.181Z,87.99
2017-10-24T07:05:40.637Z,87.75
2017-10-24T07:08:08.108Z,87.03
2017-10-24T07:10:35.565Z,87.21
2017-10-24T07:13:03.061Z,86.98
2017-10-24T07:15:30.510Z,86.76
2017-10-24T07:17:57.996Z,86.64
2017-10-24T07:20:25.445Z,86.59
2017-10-24T07:22:52.920Z,85.94
2017-10-24T07:25:20.367Z,86.27
2017-10-24T07:27:47.836Z,86.72
2017-10-24T07:30:15.292Z,86.33
2017-10-24T07:32:42.770Z,86.85
2017-10-24T07:35:10.219Z,86.49
2017-10-24T07:37:37.701Z,86.91
2017-10-24T07:40:05.225Z,86.24
2017-10-24T07:42:32.726Z,85.99
2017-10-24T07:45:00.238Z,85.37
2017-10-24T07:47:27.716Z,85.72
2017-10-24T07:49:55.184Z,85.26
2017-10-24T07:52:22.685Z,84.83
2017-10-24T07:54:50.144Z,84.23
2017-10-24T07:57:17.626Z,84.92
2017-10-24T07:59:45.080Z,84.43
2017-10-24T08:02:13.658Z,84.77
2017-10-24T08:04:41.116Z,84.50
2017-10-24T08:07:08.595Z,84.31
2017-10-24T08:09:36.040Z,84.79
2017-10-24T08:12:03.557Z,84.49
2017-10-24T08:14:31.052Z,84.45
2017-10-24T08:16:58.535Z,84.34
2017-10-24T08:19:25.992Z,84.86
2017-10-24T08:21:53.464Z,84.99
2017-10-24T08:24:20.977Z,84.22
2017-10-24T08:26:48.455Z,84.02
2017-10-24T08:29:15.903Z,84.40
2017-10-24T08:31:43.399Z,84.70
2017-10-24T08:34:10.862Z,84.30
2017-10-24T08:36:38.314Z,84.64
2017-10-24T08:39:05.788Z,84.76
2017-10-24T08:41:33.246Z,83.96
2017-10-24T08:44:00.720Z,83.34
2017-10-24T08:46:28.172Z,83.81
2017-10-24T08:48:55.647Z,82.99
2017-10-24T08:51:23.095Z,82.90
2017-10-24T08:53:50.652Z,82.74
2017-10-24T08:56:18.099Z,82.85
2017-10-24T08:58:45.566Z,83.37
2017-10-24T09:01:27.904Z,82.98
2017-10-24T09:03:55.404Z,82.99
2017-10-24T09:06:38.283Z,81.62
2017-10-24T09:09:12.449Z,81.35
2017-10-24T09:14:43.604Z,81.14
2017-10-24T09:17:43.602Z,80.55
2017-10-24T09:20:11.098Z,80.14
2017-10-24T09:22:38.668Z,80.36
2017-10-24T09:25:06.146Z,80.09
2017-10-24T09:27:33.608Z,80.30
2017-10-24T09:30:01.101Z,79.15
2017-10-24T09:32:39.367Z,78.85
2017-10-24T09:35:06.866Z,80.54
2017-10-24T09:37:34.328Z,80.28
2017-10-24T09:40:01.800Z,80.34
2017-10-24T09:42:29.257Z,80.43
2017-10-24T09:44:56.745Z,79.85
2017-10-24T09:47:24.212Z,79.70
2017-10-24T09:49:57.431Z,79.61
2017-10-24T09:52:24.888Z,79.28
2017-10-24T09:54:52.385Z,78.99
2017-10-24T09:57:19.843Z,79.48
2017-10-24T09:59:47.310Z,79.11
2017-10-24T10:02:14.777Z,79.47
2017-10-24T10:04:42.319Z,79.59
2017-10-24T10:07:09.823Z,78.85
2017-10-24T10:09:37.294Z,78.01
2017-10-24T10:12:04.747Z,78.09
2017-10-24T10:14:32.269Z,78.21
2017-10-24T10:16:59.729Z,76.67
2017-10-24T10:19:27.221Z,76.69
2017-10-24T10:21:54.737Z,76.92
2017-10-24T10:24:37.963Z,76.88
2017-10-24T10:27:05.417Z,76.33
2017-10-24T10:29:32.919Z,76.83
2017-10-24T10:32:00.372Z,76.46
2017-10-24T10:34:27.869Z,76.75
2017-10-24T10:36:55.335Z,76.94
2017-10-24T10:39:22.883Z,76.23
2017-10-24T10:41:50.368Z,76.09
2017-10-24T10:44:17.904Z,76.52
2017-10-24T10:46:45.393Z,76.33
2017-10-24T10:49:12.844Z,76.37
2017-10-24T10:51:40.333Z,76.76
2017-10-24T10:54:07.791Z,76.98
2017-10-24T10:56:35.288Z,76.22
2017-10-24T10:59:02.739Z,76.48
2017-10-24T11:01:30.217Z,77.07
2017-10-24T11:03:57.664Z,76.82
2017-10-24T11:06:25.131Z,77.62
2017-10-24T11:08:52.580Z,76.78
2017-10-24T11:11:20.149Z,77.85
2017-10-24T11:13:47.679Z,77.24
2017-10-24T11:16:15.145Z,77.47
2017-10-24T11:18:42.623Z,76.83
2017-10-24T11:21:10.105Z,77.18
2017-10-24T11:23:37.561Z,77.02
2017-10-24T11:26:05.085Z,77.12
2017-10-24T11:28:32.542Z,76.90
2017-10-24T11:31:00.017Z,76.66
2017-10-24T11:33:27.476Z,76.53
2017-10-24T11:35:54.958Z,76.93
2017-10-24T11:38:22.454Z,77.19
2017-10-24T11:40:49.928Z,76.78
2017-10-24T11:43:17.384Z,76.54
2017-10-24T11:45:44.845Z,76.69
2017-10-24T11:48:12.327Z,76.97
2017-10-24T11:50:39.815Z,76.34
2017-10-24T11:53:07.284Z,76.86
2017-10-24T11:55:34.737Z,76.71
2017-10-24T11:58:02.224Z,76.59
2017-10-24T12:00:29.690Z,76.58
2017-10-24T12:02:57.231Z,76.64
2017-10-24T12:05:24.784Z,76.24
2017-10-24T12:07:52.251Z,76.17
2017-10-24T12:10:19.746Z,75.58
2017-10-24T12:12:47.224Z,76.09
2017-10-24T12:15:14.672Z,75.90
2017-10-24T12:17:42.148Z,76.78
2017-10-24T12:20:09.628Z,76.54
2017-10-24T12:22:37.135Z,77.00
2017-10-24T12:25:04.588Z,77.02
2017-10-24T12:27:32.101Z,77.38
2017-10-24T12:29:59.556Z,76.79
2017-10-24T12:32:27.084Z,76.20
2017-10-24T12:34:54.539Z,76.21
2017-10-24T12:37:22.008Z,76.87
2017-10-24T12:39:49.456Z,76.15
2017-10-24T12:42:31.828Z,76.46
2017-10-24T12:45:01.702Z,76.83
2017-10-24T12:47:29.175Z,76.68
2017-10-24T12:49:57.563Z,76.43
2017-10-24T12:52:25.037Z,76.35
2017-10-24T12:54:52.486Z,76.28
2017-10-24T12:57:22.514Z,76.52
2017-10-24T12:59:50.243Z,76.12
2017-10-24T13:02:17.717Z,76.38
2017-10-24T13:04:45.221Z,76.39
2017-10-24T13:07:12.693Z,76.71
2017-10-24T13:09:40.174Z,77.03
2017-10-24T13:12:07.652Z,76.91
2017-10-24T13:14:35.129Z,77.04
2017-10-24T13:17:02.609Z,76.83
2017-10-24T13:19:30.093Z,77.25
2017-10-24T13:21:57.751Z,77.11
2017-10-24T13:24:25.220Z,76.10
2017-10-24T13:26:52.688Z,77.10
2017-10-24T13:29:20.215Z,77.05
2017-10-24T13:31:47.681Z,77.67
2017-10-24T13:34:15.230Z,77.19
2017-10-24T13:36:42.761Z,77.29
2017-10-24T13:39:10.246Z,77.06
2017-10-24T13:41:37.698Z,77.67
2017-10-24T13:44:05.167Z,77.72
2017-10-24T13:46:32.677Z,77.56
2017-10-24T13:49:00.124Z,78.03
2017-10-24T13:51:27.600Z,77.87
2017-10-24T13:53:55.064Z,78.35
2017-10-24T13:56:22.544Z,77.26
2017-10-24T13:58:49.999Z,77.79
2017-10-24T14:01:17.464Z,77.56
2017-10-24T14:03:44.921Z,77.53
2017-10-24T14:09:19.984Z,78.90
2017-10-24T14:11:47.472Z,78.56
2017-10-24T14:14:14.937Z,78.77
2017-10-24T14:16:42.439Z,78.35
2017-10-24T14:19:09.913Z,78.22
2017-10-24T14:21:37.407Z,78.55
2017-10-24T14:24:04.860Z,78.24
2017-10-24T14:26:32.344Z,78.73
2017-10-24T14:28:59.925Z,79.06
2017-10-24T14:31:27.490Z,79.27
2017-10-24T14:33:54.992Z,79.67
2017-10-24T14:36:22.469Z,79.32
2017-10-24T14:38:49.957Z,79.68
2017-10-24T14:41:17.412Z,79.63
2017-10-24T14:43:44.978Z,79.88
2017-10-24T14:46:12.533Z,80.07
2017-10-24T14:48:40.029Z,79.90
2017-10-24T14:51:07.495Z,79.62
2017-10-24T14:53:34.968Z,79.20
2017-10-24T14:56:02.461Z,79.02
2017-10-24T14:58:29.973Z,80.14
2017-10-24T15:00:57.434Z,79.76
2017-10-24T15:03:24.897Z,79.70
2017-10-24T15:05:52.381Z,80.03
2017-10-24T15:08:19.833Z,79.50
2017-10-24T15:10:47.423Z,80.56
2017-10-24T15:13:14.937Z,80.45
2017-10-24T15:15:42.429Z,80.83
2017-10-24T15:18:09.982Z,81.94
2017-10-24T15:20:37.465Z,82.08
2017-10-24T15:23:04.924Z,82.00
2017-10-24T15:25:32.397Z,82.15
2017-10-24T15:27:59.865Z,82.92
2017-10-24T15:30:27.347Z,81.02
2017-10-24T15:32:54.807Z,81.65
2017-10-24T15:35:22.260Z,82.51
2017-10-24T15:37:49.740Z,82.39
2017-10-24T15:40:17.195Z,82.50
2017-10-24T15:42:44.745Z,82.03
2017-10-24T15:45:12.225Z,82.29
2017-10-24T15:47:39.717Z,82.37
2017-10-24T15:50:07.174Z,82.60
2017-10-24T15:52:34.656Z,82.72
2017-10-24T15:55:02.112Z,82.73
2017-10-24T15:57:29.708Z,83.20
2017-10-24T15:59:57.252Z,82.53
2017-10-24T16:02:24.739Z,82.97
2017-10-24T16:04:52.287Z,83.23
2017-10-24T16:07:19.741Z,82.43
2017-10-24T16:09:47.227Z,82.89
2017-10-24T16:12:14.949Z,82.91
2017-10-24T16:14:42.428Z,82.55
2017-10-24T16:17:09.876Z,82.06
2017-10-24T16:19:37.402Z,82.55
2017-10-24T16:22:04.848Z,82.77
2017-10-24T16:24:32.317Z,83.52
2017-10-24T16:26:59.789Z,83.71
2017-10-24T16:29:27.275Z,83.45
2017-10-24T16:31:54.746Z,83.22
2017-10-24T16:34:22.228Z,82.96
2017-10-24T16:36:49.676Z,83.18
2017-10-24T16:39:17.186Z,83.06
2017-10-24T16:41:44.639Z,82.70
2017-10-24T16:44:12.205Z,83.54
2017-10-24T16:46:39.673Z,83.61
2017-10-24T16:49:07.141Z,83.18
2017-10-24T16:51:34.612Z,83.40
2017-10-24T16:54:02.060Z,83.50
2017-10-24T16:56:29.556Z,83.59
2017-10-24T16:58:57.025Z,83.78
2017-10-24T17:01:24.504Z,83.70
2017-10-24T17:03:51.986Z,83.83
2017-10-24T17:06:19.489Z,83.50
2017-10-24T17:08:46.940Z,83.02
2017-10-24T17:11:14.421Z,83.23
2017-10-24T17:13:41.884Z,82.92
2017-10-24T17:16:09.384Z,82.94
2017-10-24T17:18:36.888Z,83.16
2017-10-24T17:21:04.348Z,83.99
2017-10-24T17:23:31.826Z,83.97
2017-10-24T17:25:59.280Z,83.99
2017-10-24T17:28:26.780Z,84.13
2017-10-24T17:30:54.259Z,83.97
2017-10-24T17:33:21.751Z,84.62
2017-10-24T17:35:49.241Z,84.46
2017-10-24T17:38:16.747Z,84.58
2017-10-24T17:40:44.207Z,84.71
2017-10-24T17:43:11.692Z,84.94
2017-10-24T17:45:39.216Z,84.69
2017-10-24T17:48:06.773Z,84.41
2017-10-24T17:50:34.235Z,84.66
2017-10-24T17:53:01.740Z,84.68
2017-10-24T17:55:29.201Z,84.88
2017-10-24T17:57:56.665Z,84.87
2017-10-24T18:00:24.155Z,84.99
2017-10-24T18:02:51.619Z,85.72
2017-10-24T18:05:19.103Z,86.48
2017-10-24T18:07:46.565Z,86.21
2017-10-24T18:10:14.061Z,86.61
2017-10-24T18:12:41.537Z,86.89
2017-10-24T18:15:09.739Z,86.38
2017-10-24T18:17:37.268Z,86.81
2017-10-24T18:20:04.739Z,86.84
2017-10-24T18:22:32.321Z,87.10
2017-10-24T18:24:59.804Z,87.97
2017-10-24T18:27:27.260Z,87.58
2017-10-24T18:29:54.765Z,88.31
2017-10-24T18:32:22.228Z,88.60
2017-10-24T18:34:49.700Z,88.04
2017-10-24T18:37:17.196Z,88.83
2017-10-24T18:39:44.670Z,89.09
2017-10-24T18:42:12.256Z,88.81
2017-10-24T18:44:39.718Z,88.94
2017-10-24T18:47:07.201Z,89.56
2017-10-24T18:49:34.681Z,89.47
2017-10-24T18:52:02.177Z,90.15
2017-10-24T18:54:29.732Z,90.40
2017-10-24T18:56:57.229Z,90.14
2017-10-24T18:59:24.710Z,90.13
2017-10-24T19:01:52.188Z,90.12
2017-10-24T19:04:19.647Z,90.06
2017-10-24T19:06:47.124Z,89.67
2017-10-24T19:09:14.632Z,90.09
2017-10-24T19:11:42.151Z,89.76
2017-10-24T19:14:09.617Z,89.73
2017-10-24T19:16:37.075Z,89.47
2017-10-24T19:19:04.557Z,89.39
2017-10-24T19:21:32.066Z,89.68
2017-10-24T19:23:59.557Z,90.11
2017-10-24T19:26:27.024Z,90.07
2017-10-24T19:28:54.507Z,90.00
2017-10-24T19:31:21.972Z,89.36
2017-10-24T19:33:49.458Z,89.79
2017-10-24T19:36:16.933Z,89.58
2017-10-24T19:38:44.400Z,89.60
2017-10-24T19:41:11.916Z,88.69
2017-10-24T19:43:39.381Z,88.83
2017-10-24T19:46:06.929Z,89.41
2017-10-24T19:48:34.393Z,88.67
2017-10-24T19:51:01.899Z,89.59
2017-10-24T19:53:29.405Z,89.39
2017-10-24T19:55:56.887Z,89.16
2017-10-24T19:58:24.353Z,89.05
2017-10-24T20:00:51.836Z,89.10
2017-10-24T20:03:19.324Z,89.39
2017-10-24T20:05:46.942Z,89.32
2017-10-24T20:08:14.395Z,88.80
2017-10-24T20:10:41.900Z,89.15
2017-10-24T20:13:09.376Z,88.99
2017-10-24T20:15:36.850Z,89.03
2017-10-24T20:18:04.375Z,88.97
2017-10-24T20:20:31.845Z,88.76
2017-10-24T20:22:59.338Z,88.95
2017-10-24T20:25:26.795Z,88.42
2017-10-24T20:27:54.308Z,88.35
2017-10-24T20:30:21.889Z,88.18
2017-10-24T20:32:49.426Z,88.25
2017-10-24T20:35:16.888Z,88.22
2017-10-24T20:37:44.396Z,89.23
2017-10-24T20:40:11.897Z,89.12
2017-10-24T20:42:39.456Z,88.81
2017-10-24T20:45:07.278Z,88.64
2017-10-24T20:47:34.869Z,88.32
2017-10-24T20:50:02.444Z,87.34
2017-10-24T20:52:29.928Z,87.44
2017-10-24T20:54:57.395Z,88.02
2017-10-24T20:57:24.894Z,88.14
2017-10-24T20:59:52.384Z,88.60
2017-10-24T21:02:19.932Z,88.54
2017-10-24T21:04:47.485Z,88.49
2017-10-24T21:07:14.980Z,89.32
2017-10-24T21:09:42.436Z,89.72
2017-10-24T21:12:11.613Z,89.54
2017-10-24T21:14:39.086Z,89.31
2017-10-24T21:17:06.575Z,89.80
2017-10-24T21:19:34.048Z,90.09
2017-10-24T21:22:01.540Z,89.97
2017-10-24T21:24:29.008Z,90.00
2017-10-24T21:26:56.485Z,90.57
2017-10-24T21:29:23.992Z,91.09
2017-10-24T21:31:51.560Z,91.18
2017-10-24T21:34:19.112Z,91.24
2017-10-24T21:36:46.568Z,90.59
2017-10-24T21:39:14.081Z,90.89
2017-10-24T21:41:41.545Z,90.95
2017-10-24T21:44:09.053Z,90.66
2017-10-24T21:46:36.536Z,91.20
2017-10-24T21:49:04.017Z,90.97
2017-10-24T21:51:31.510Z,90.88
2017-10-24T21:53:58.983Z,90.89
2017-10-24T21:56:26.456Z,91.00
2017-10-24T21:58:53.941Z,91.38
2017-10-24T22:01:21.456Z,91.21
2017-10-24T22:03:49.000Z,91.37
2017-10-24T22:06:16.564Z,91.17
2017-10-24T22:08:44.050Z,90.79
2017-10-24T22:11:11.537Z,90.78
2017-10-24T22:13:39.026Z,90.98
2017-10-24T22:16:06.596Z,90.77
2017-10-24T22:18:34.088Z,91.26
2017-10-24T22:21:01.550Z,91.42
2017-10-24T22:23:29.033Z,90.96
2017-10-24T22:25:56.518Z,91.28
2017-10-24T22:28:24.009Z,90.98
2017-10-24T22:30:51.460Z,90.51
2017-10-24T22:33:18.944Z,90.88
2017-10-24T22:35:46.464Z,91.09
2017-10-24T22:38:14.005Z,90.38
2017-10-24T22:40:41.491Z,90.35
2017-10-24T22:43:08.985Z,90.17
2017-10-24T22:45:36.472Z,89.91
2017-10-24T22:48:03.952Z,90.31
2017-10-24T22:50:31.487Z,90.50
2017-10-24T22:52:58.961Z,89.95
2017-10-24T22:55:26.418Z,90.03
2017-10-24T22:57:53.966Z,89.63
2017-10-24T23:00:21.531Z,90.15
2017-10-24T23:02:49.084Z,90.07
2017-10-24T23:05:16.544Z,89.66
2017-10-24T23:07:44.024Z,90.29
2017-10-24T23:10:11.509Z,89.99
2017-10-24T23:12:38.989Z,89.83
2017-10-24T23:15:06.472Z,90.13
2017-10-24T23:17:33.952Z,89.83
2017-10-24T23:20:01.425Z,89.84
2017-10-24T23:22:28.944Z,89.37
2017-10-24T23:24:56.456Z,89.39
2017-10-24T23:27:23.908Z,89.90
2017-10-24T23:29:51.409Z,90.08
2017-10-24T23:32:18.966Z,89.92
2017-10-24T23:34:46.443Z,89.96
2017-10-24T23:37:13.980Z,89.89
2017-10-24T23:39:41.457Z,89.72
2017-10-24T23:42:08.930Z,90.72
2017-10-24T23:44:36.411Z,90.21
2017-10-24T23:47:03.881Z,90.17
2017-10-24T23:49:31.469Z,89.59
2017-10-24T23:51:58.945Z,90.03
2017-10-24T23:54:26.417Z,90.34
2017-10-24T23:56:53.864Z,90.13
2017-10-24T23:59:21.400Z,90.80
